Terminal Aerodrome Forecast
Issued by NWS

Home | Current Version | Previous Version | Text Only | Print | Product List | Glossary On
Versions: 1 2 3 4 5 6 7 8 9 10 11 12 13 14 15 16 17 18 19 20 21 22 23 24 25 26
101
FTUS42 KGSP 122333
TAFHKY
TAF
KHKY 122333Z 1300/1324 27005KT P6SM BKN040
     FM130100 28006KT P6SM SCT120
     FM130700 31008KT P6SM FEW100
     FM131000 32009KT P6SM FEW100=

USA.gov is the U.S. government's official web portal to all federal, state and local government web resources and services.